LIRNLIBP

Guest
Details From LIRN - Naples Capodichino
To LIBP - PESCARA
Flight Number -
Tags generated
Created
Modified
Stats Distance 93 nm / 173 km
Max Altitude 3,400 ft / 1,036 m
Waypoints 3
Social Downloads 10
Likes 0
Share VATSIM

Download

Looking for another format? Having issues loading an existing format? Contact us
Advertisement - Login to hide

Notes

Basic altitude profile: - Ascent Rate: 2500ft/min - Ascent Speed: 250kts - Cruise Altitude: 35000ft - Cruise Speed: 420kts - Descent Rate: 1500ft/min - Descent Speed: 250kts

Route

LIRN EMILY LIBP

ID Type Via Altitude Latitude Longitude Leg Dist Tot Dist Heading (true) Name
O LIRN APT - 0 ft / 0 m 40.88603˚ 14.29078˚ - 0 nm - Naples Capodichino
EMILY FIX - 3,400 ft / 1,036 m 42.16806˚ 14.13361˚ 77 nm 77 nm 355° / 355° -
O LIBP APT - 0 ft / 0 m 42.43126˚ 14.18303˚ 15 nm 93 nm 8° / 8° PESCARA

Altitude Profile

Advertisement - Login to hide

LIRN

Details ICAO LIRN (NAP)
Name Naples Capodichino
Region Italy
Timezone Europe/Rome (UTC+1.0)
Stats Elevation 294 ft / 90 m (AMSL)
Location 40.886032° 14.290783°
Runways 1
Magnetic Variation 3.307° E

METAR

LIRN 122050Z 19008KT 9999 FEW025 SCT040 16/11 Q1019 NOSIG

Decode

TAF

TAF LIRN 121700Z 1218/1318 19013KT 7000 SCT020 BKN040 BECMG 1307/1309 26013KT TEMPO 1308/1312 SHRA

Decode

Departure Runways

ID Width Length Bearing (true) Bearing (mag) Surface Threshold Offset Overrun Length
06 148 ft / 45 m 8,612 ft / 2,625 m 58.03° 54.72° Asphalt 1,309 ft / 399 m 0 ft / 0 m
24 148 ft / 45 m 8,612 ft / 2,625 m 238.05° 234.74° Asphalt 624 ft / 190 m 0 ft / 0 m

LIBP

Details ICAO LIBP (PSR)
Name PESCARA
Region Italy
Timezone Europe/Rome (UTC+1.0)
Stats Elevation 48 ft / 15 m (AMSL)
Location 42.431257° 14.183030°
Runways 1
Magnetic Variation 3.381° E

METAR

LIBP 122050Z 36008KT 9999 FEW010 BKN075 14/12 Q1015

Decode

TAF

TAF LIBP 121700Z 1218/1318 VRB06KT 9999 SCT030 TEMPO 1300/1309 4000 RA TEMPO 1309/1315 SHRA

Decode

Destination Runways

ID Width Length Bearing (true) Bearing (mag) Surface Threshold Offset Overrun Length
04 148 ft / 45 m 7,943 ft / 2,421 m 37.19° 33.81° Asphalt 344 ft / 105 m 0 ft / 0 m
22 148 ft / 45 m 7,943 ft / 2,421 m 217.21° 213.83° Asphalt 617 ft / 188 m 0 ft / 0 m

Approach Navaids

Runway Type Ident Frequency Range Bearing (true) Bearing (mag) Slope Elevation
22 Localiser IPS 110.70 MHz 18 nm / 33 km 217.39° 214.01° - 48 ft / 15 m (AMSL)
22 Glidescope IPS 110.70 MHz 10 nm / 19 km 217.20° 213.82° 3.00° 48 ft / 15 m (AMSL)
22 DME IPS 110.70 MHz 18 nm / 33 km - - - 48 ft / 15 m (AMSL)

Popular Alternatives